Time;durP1;ratioP1;P1;durP2;ratioP2;P2;SDS_P1;SDS_P2;PMS_P1;PMS_P2;Temp;Humidity;BMP_temperature;BMP_pressure;BME280_temperature;BME280_humidity;BME280_pressure;Samples;Min_cycle;Max_cycle;Signal;HPM_P1;HPM_P2
2021/12/23 00:00:49;;;;;;;48.53;35.70;;;;;;;-6.36;100.00;100749.00;4982025;28;20194;-54
2021/12/23 00:03:14;;;;;;;43.17;32.57;;;;;;;-6.41;100.00;100736.09;4980392;28;21742;-55
2021/12/23 00:05:40;;;;;;;43.83;32.13;;;;;;;-6.44;100.00;100748.47;4985754;28;20189;-56
2021/12/23 00:08:05;;;;;;;42.03;32.17;;;;;;;-6.47;100.00;100744.13;4982419;28;20220;-56
2021/12/23 00:10:30;;;;;;;42.03;31.87;;;;;;;-6.49;100.00;100738.09;4982726;28;20193;-54
2021/12/23 00:12:56;;;;;;;40.47;30.67;;;;;;;-6.51;100.00;100736.25;4984085;28;20189;-54
2021/12/23 00:16:03;;;;;;;41.17;32.10;;;;;;;-6.52;100.00;100740.41;4980539;28;20243;-54
2021/12/23 00:23:50;;;;;;;35.83;27.67;;;;;;;-6.54;100.00;100711.72;4981293;28;20213;-55
2021/12/23 00:26:16;;;;;;;34.57;27.13;;;;;;;-6.54;100.00;100706.69;4980616;28;20185;-55
2021/12/23 00:28:41;;;;;;;31.83;25.63;;;;;;;-6.53;100.00;100703.41;4985193;28;20215;-55
2021/12/23 00:31:07;;;;;;;36.40;26.03;;;;;;;-6.51;100.00;100695.97;4986300;28;20275;-55
2021/12/23 00:33:35;;;;;;;31.97;24.33;;;;;;;-6.52;100.00;100687.53;4981257;28;20217;-56
2021/12/23 00:36:03;;;;;;;36.53;28.87;;;;;;;-6.49;100.00;100696.91;4987928;28;20217;-56
2021/12/23 00:38:34;;;;;;;36.83;28.93;;;;;;;-6.48;100.00;100684.44;4985607;28;20308;-56
2021/12/23 00:41:02;;;;;;;39.13;28.87;;;;;;;-6.47;100.00;100686.19;4982921;28;20185;-56
2021/12/23 00:43:28;;;;;;;35.00;28.00;;;;;;;-6.45;100.00;100677.09;4982431;28;20193;-54
2021/12/23 00:45:54;;;;;;;37.00;27.73;;;;;;;-6.45;100.00;100682.13;4983033;28;20189;-55
2021/12/23 00:48:19;;;;;;;35.97;29.03;;;;;;;-6.43;100.00;100674.66;4979455;28;20268;-54
2021/12/23 00:50:46;;;;;;;37.63;30.33;;;;;;;-6.41;100.00;100678.16;4983584;28;20671;-55
2021/12/23 00:53:17;;;;;;;35.93;29.30;;;;;;;-6.40;100.00;100669.84;4982635;28;20284;-55
2021/12/23 00:55:43;;;;;;;33.57;27.63;;;;;;;-6.41;100.00;100660.53;4981715;28;20200;-54
2021/12/23 00:58:08;;;;;;;33.87;27.10;;;;;;;-6.41;100.00;100665.56;4982528;28;20209;-55
2021/12/23 01:00:34;;;;;;;34.20;26.90;;;;;;;-6.40;100.00;100656.34;4987117;28;20193;-54
2021/12/23 01:03:00;;;;;;;35.57;27.53;;;;;;;-6.38;100.00;100658.22;4985989;28;20515;-54
2021/12/23 01:05:27;;;;;;;34.03;27.37;;;;;;;-6.38;100.00;100645.63;4990789;28;20192;-54
2021/12/23 01:07:52;;;;;;;33.27;27.53;;;;;;;-6.33;100.00;100644.25;4987384;28;20245;-55
2021/12/23 01:10:18;;;;;;;37.40;29.53;;;;;;;-6.30;100.00;100636.06;4986480;28;20213;-54
2021/12/23 01:12:50;;;;;;;38.13;30.17;;;;;;;-6.26;100.00;100632.09;4985117;28;20200;-54
2021/12/23 01:18:06;;;;;;;36.97;29.10;;;;;;;-6.18;100.00;100629.28;4984603;28;20228;-54
2021/12/23 01:20:35;;;;;;;40.33;31.23;;;;;;;-6.12;100.00;100632.16;4983601;28;20185;-55
2021/12/23 01:23:04;;;;;;;37.53;29.87;;;;;;;-6.08;100.00;100633.25;4984270;28;20200;-54
2021/12/23 01:25:30;;;;;;;39.53;31.20;;;;;;;-6.05;100.00;100628.41;4984445;28;20681;-55
2021/12/23 01:27:55;;;;;;;41.43;31.73;;;;;;;-6.01;100.00;100634.53;4987517;28;20205;-54
2021/12/23 01:30:21;;;;;;;40.47;31.47;;;;;;;-5.99;100.00;100620.34;4990132;28;20214;-57
2021/12/23 01:32:49;;;;;;;36.83;29.87;;;;;;;-6.02;100.00;100631.13;4988921;28;20708;-57
2021/12/23 01:35:16;;;;;;;38.47;30.47;;;;;;;-6.02;100.00;100628.59;4987849;28;20177;-55
2021/12/23 01:37:42;;;;;;;42.93;31.37;;;;;;;-6.00;100.00;100624.53;4985934;28;20217;-53
2021/12/23 01:40:09;;;;;;;40.20;32.60;;;;;;;-5.99;100.00;100626.25;4987079;28;20189;-55
2021/12/23 01:42:34;;;;;;;41.27;32.80;;;;;;;-6.01;100.00;100624.44;4996652;28;20188;-55
2021/12/23 01:45:01;;;;;;;39.40;32.17;;;;;;;-6.03;100.00;100626.84;4988609;28;20283;-56
2021/12/23 01:47:26;;;;;;;40.63;32.37;;;;;;;-6.03;100.00;100628.50;4984319;28;20221;-54
2021/12/23 01:49:52;;;;;;;37.20;30.13;;;;;;;-6.05;100.00;100635.97;4988920;28;20197;-55
2021/12/23 01:52:17;;;;;;;37.37;29.97;;;;;;;-6.04;100.00;100629.28;4987433;28;20193;-56
2021/12/23 01:54:43;;;;;;;36.10;29.63;;;;;;;-6.05;100.00;100623.34;4987778;28;20616;-56
2021/12/23 01:57:10;;;;;;;37.30;29.80;;;;;;;-6.04;100.00;100616.69;4989407;28;20216;-56
2021/12/23 01:59:35;;;;;;;35.77;28.60;;;;;;;-6.04;100.00;100611.66;4984378;28;20208;-54
2021/12/23 02:02:00;;;;;;;35.63;28.43;;;;;;;-6.02;100.00;100607.56;4985511;28;20392;-54
2021/12/23 02:04:26;;;;;;;34.80;28.50;;;;;;;-5.99;100.00;100615.31;4987714;28;20205;-54
2021/12/23 02:06:51;;;;;;;36.20;28.77;;;;;;;-5.97;100.00;100607.06;4983437;28;20216;-54
2021/12/23 02:09:18;;;;;;;38.40;30.10;;;;;;;-5.94;100.00;100608.03;4978811;28;20306;-54
2021/12/23 02:11:44;;;;;;;35.63;28.50;;;;;;;-5.94;100.00;100606.38;4982245;28;20563;-57
2021/12/23 02:14:10;;;;;;;33.57;28.40;;;;;;;-5.92;100.00;100609.00;4983700;28;20190;-55
2021/12/23 02:16:35;;;;;;;33.93;27.00;;;;;;;-5.91;100.00;100605.72;4985504;28;20680;-55
2021/12/23 02:19:04;;;;;;;32.70;27.83;;;;;;;-5.89;100.00;100599.97;4987451;28;20546;-55
2021/12/23 02:21:29;;;;;;;33.37;27.50;;;;;;;-5.88;100.00;100596.69;4989178;28;20569;-54
2021/12/23 02:23:54;;;;;;;34.80;28.10;;;;;;;-5.88;100.00;100591.63;4983006;28;20181;-54
2021/12/23 02:26:20;;;;;;;35.40;28.17;;;;;;;-5.87;100.00;100602.56;4984877;28;20790;-54
2021/12/23 02:28:45;;;;;;;34.00;28.13;;;;;;;-5.85;100.00;100593.47;4979374;28;20988;-55
2021/12/23 02:31:10;;;;;;;33.67;26.93;;;;;;;-5.84;100.00;100586.00;4986158;28;20223;-54
2021/12/23 02:33:36;;;;;;;33.17;26.03;;;;;;;-5.82;100.00;100576.88;4983882;28;20227;-55
2021/12/23 02:36:01;;;;;;;29.47;23.70;;;;;;;-5.79;100.00;100591.34;4987638;28;20189;-55
2021/12/23 02:38:27;;;;;;;32.93;24.50;;;;;;;-5.78;100.00;100585.53;4982571;28;20764;-55
2021/12/23 02:40:53;;;;;;;33.03;25.00;;;;;;;-5.78;100.00;100577.97;4985127;28;20659;-55
2021/12/23 02:43:23;;;;;;;30.23;24.60;;;;;;;-5.79;100.00;100573.69;4986322;28;20653;-55
2021/12/23 02:45:50;;;;;;;30.50;23.57;;;;;;;-5.77;100.00;100576.28;4980742;28;20198;-55
2021/12/23 02:48:19;;;;;;;31.03;25.23;;;;;;;-5.75;100.00;100582.31;4984200;28;20236;-55
2021/12/23 02:50:48;;;;;;;30.50;23.40;;;;;;;-5.75;100.00;100573.13;4987040;28;20221;-55
2021/12/23 02:53:13;;;;;;;31.57;23.30;;;;;;;-5.77;100.00;100564.56;4986285;28;20625;-55
2021/12/23 02:55:39;;;;;;;30.73;24.13;;;;;;;-5.78;100.00;100560.31;4984036;28;20213;-56
2021/12/23 02:58:05;;;;;;;30.63;23.77;;;;;;;-5.78;100.00;100551.84;4985144;28;20211;-55
2021/12/23 03:00:31;;;;;;;29.67;24.23;;;;;;;-5.76;100.00;100555.34;4985647;28;20185;-53
2021/12/23 03:02:56;;;;;;;31.87;24.93;;;;;;;-5.74;100.00;100556.31;5012190;28;20586;-56
2021/12/23 03:05:22;;;;;;;28.83;23.40;;;;;;;-5.74;100.00;100552.13;4981581;28;20516;-55
2021/12/23 03:07:48;;;;;;;32.03;23.87;;;;;;;-5.70;100.00;100541.47;4986362;28;20636;-55
2021/12/23 03:10:13;;;;;;;29.53;23.90;;;;;;;-5.68;100.00;100532.34;4987232;28;20196;-55
2021/12/23 03:12:38;;;;;;;31.73;24.53;;;;;;;-5.63;100.00;100527.56;5005503;28;20173;-56
2021/12/23 03:15:05;;;;;;;30.27;25.17;;;;;;;-5.60;100.00;100537.00;5004866;28;20193;-56
2021/12/23 03:17:30;;;;;;;29.63;24.20;;;;;;;-5.57;100.00;100529.59;4983436;28;20209;-56
2021/12/23 03:19:56;;;;;;;30.97;23.80;;;;;;;-5.55;100.00;100515.44;4983819;28;20189;-57
2021/12/23 03:22:21;;;;;;;31.53;25.03;;;;;;;-5.53;100.00;100514.75;4983032;28;20189;-54
2021/12/23 03:24:47;;;;;;;34.23;27.80;;;;;;;-5.52;100.00;100523.19;4983779;28;20193;-55
2021/12/23 03:27:12;;;;;;;35.50;28.37;;;;;;;-5.53;100.00;100523.97;4985927;28;20208;-55
2021/12/23 03:29:38;;;;;;;33.70;26.50;;;;;;;-5.54;100.00;100518.06;4981931;28;20601;-55
2021/12/23 03:32:04;;;;;;;34.33;27.73;;;;;;;-5.51;100.00;100527.44;4983554;28;20272;-55
2021/12/23 03:34:29;;;;;;;35.90;28.67;;;;;;;-5.49;100.00;100530.06;4980885;28;20714;-55
2021/12/23 03:36:54;;;;;;;35.07;27.87;;;;;;;-5.48;100.00;100526.75;4982369;28;20320;-55
2021/12/23 03:39:20;;;;;;;34.20;26.47;;;;;;;-5.46;100.00;100507.53;4983652;28;20316;-54
2021/12/23 03:41:46;;;;;;;32.87;26.13;;;;;;;-5.45;100.00;100507.66;4983393;28;20440;-55
2021/12/23 03:44:12;;;;;;;33.90;27.00;;;;;;;-5.44;100.00;100521.97;4977984;28;20548;-55
2021/12/23 03:46:38;;;;;;;38.33;29.73;;;;;;;-5.41;100.00;100526.34;4980766;28;20271;-55
2021/12/23 03:49:07;;;;;;;41.13;30.57;;;;;;;-5.44;100.00;100511.88;4981844;28;20215;-55
2021/12/23 03:51:33;;;;;;;43.30;30.97;;;;;;;-5.44;100.00;100511.88;4977475;28;20188;-54
2021/12/23 03:53:59;;;;;;;41.73;29.93;;;;;;;-5.48;100.00;100502.41;5017076;28;20567;-55
2021/12/23 03:56:24;;;;;;;41.70;30.73;;;;;;;-5.50;100.00;100501.44;4990371;28;20213;-55
2021/12/23 03:58:50;;;;;;;40.00;30.80;;;;;;;-5.52;100.00;100493.78;4985644;28;20224;-55
2021/12/23 04:01:16;;;;;;;37.20;29.03;;;;;;;-5.54;100.00;100494.47;4983961;28;20194;-54
2021/12/23 04:03:41;;;;;;;36.90;28.67;;;;;;;-5.56;100.00;100496.91;4981264;28;20642;-55
2021/12/23 04:06:07;;;;;;;38.80;27.70;;;;;;;-5.57;100.00;100495.19;4981497;28;20238;-54
2021/12/23 04:08:32;;;;;;;36.90;27.20;;;;;;;-5.59;100.00;100494.22;4979622;28;20217;-56
2021/12/23 04:10:59;;;;;;;39.47;28.47;;;;;;;-5.61;100.00;100498.28;4981142;28;21504;-55
2021/12/23 04:13:26;;;;;;;34.00;26.77;;;;;;;-5.63;100.00;100487.22;4982257;28;20191;-54
2021/12/23 04:15:52;;;;;;;37.13;28.10;;;;;;;-5.65;100.00;100478.69;4986934;28;20204;-56
2021/12/23 04:18:18;;;;;;;35.53;28.43;;;;;;;-5.69;100.00;100475.13;4976467;28;20209;-56
2021/12/23 04:20:53;;;;;;;37.73;28.07;;;;;;;-5.74;100.00;100481.53;4981164;28;20279;-57
2021/12/23 04:23:22;;;;;;;36.00;27.60;;;;;;;-5.75;100.00;100472.28;4982383;28;20283;-55
2021/12/23 04:25:48;;;;;;;35.33;28.27;;;;;;;-5.76;100.00;100480.59;5012134;28;20197;-55
2021/12/23 04:28:13;;;;;;;36.70;28.53;;;;;;;-5.78;100.00;100476.22;4980593;28;20208;-57
2021/12/23 04:30:39;;;;;;;36.47;27.93;;;;;;;-5.81;100.00;100474.41;4981260;28;20255;-56
2021/12/23 04:33:04;;;;;;;32.80;28.00;;;;;;;-5.81;100.00;100469.38;4982419;28;20190;-56
2021/12/23 04:35:30;;;;;;;35.87;28.43;;;;;;;-5.82;100.00;100463.44;4985409;28;20180;-56
2021/12/23 04:37:58;;;;;;;34.93;29.07;;;;;;;-5.81;100.00;100470.22;4988033;28;20201;-56
2021/12/23 04:40:23;;;;;;;37.90;30.80;;;;;;;-5.74;100.00;100475.66;5016265;28;20185;-54
2021/12/23 04:42:48;;;;;;;38.30;30.07;;;;;;;-5.73;100.00;100473.19;5019425;28;20543;-54
2021/12/23 04:45:14;;;;;;;36.47;29.07;;;;;;;-5.73;100.00;100460.59;4984194;28;20672;-54
2021/12/23 04:47:40;;;;;;;35.83;28.87;;;;;;;-5.73;100.00;100445.47;4987474;28;20230;-56
2021/12/23 04:50:08;;;;;;;35.20;28.97;;;;;;;-5.69;100.00;100447.41;4989150;28;20192;-53
2021/12/23 04:52:33;;;;;;;35.23;28.27;;;;;;;-5.66;100.00;100449.22;4985881;28;20238;-54
2021/12/23 04:54:59;;;;;;;32.63;26.80;;;;;;;-5.62;100.00;100447.78;4993200;28;22087;-54
2021/12/23 04:57:24;;;;;;;31.77;26.27;;;;;;;-5.59;100.00;100441.25;4994851;28;20208;-56
2021/12/23 04:59:50;;;;;;;33.13;26.30;;;;;;;-5.55;100.00;100455.78;4999250;28;20195;-54
2021/12/23 05:02:15;;;;;;;35.27;28.33;;;;;;;-5.52;100.00;100460.13;4992810;28;20638;-54
2021/12/23 05:04:40;;;;;;;33.23;26.07;;;;;;;-5.52;100.00;100450.91;4993896;28;20567;-54
2021/12/23 05:07:06;;;;;;;33.53;26.60;;;;;;;-5.52;100.00;100450.91;4992275;28;20238;-56
2021/12/23 05:09:31;;;;;;;31.97;26.03;;;;;;;-5.51;100.00;100441.69;4995771;28;20255;-54
2021/12/23 05:11:57;;;;;;;34.90;27.40;;;;;;;-5.51;100.00;100436.66;4985777;28;20248;-56
2021/12/23 05:14:22;;;;;;;32.47;26.00;;;;;;;-5.47;100.00;100437.69;4992911;28;20224;-56
2021/12/23 05:16:47;;;;;;;32.00;25.23;;;;;;;-5.44;100.00;100428.66;4984684;28;20291;-54
2021/12/23 05:19:13;;;;;;;30.87;24.87;;;;;;;-5.40;100.00;100417.97;4987688;28;20192;-55
2021/12/23 05:21:38;;;;;;;29.67;23.50;;;;;;;-5.36;100.00;100408.91;5022271;28;20243;-56
2021/12/23 05:24:04;;;;;;;30.23;24.27;;;;;;;-5.32;100.00;100402.41;4993138;28;20638;-56
2021/12/23 05:26:29;;;;;;;29.87;23.63;;;;;;;-5.32;100.00;100405.78;4982746;28;20194;-54
2021/12/23 05:28:54;;;;;;;29.77;23.80;;;;;;;-5.30;100.00;100408.41;4993599;28;20208;-54
2021/12/23 05:31:20;;;;;;;29.37;23.43;;;;;;;-5.31;100.00;100402.47;4993195;28;20204;-55
2021/12/23 05:33:45;;;;;;;29.30;23.20;;;;;;;-5.32;100.00;100395.69;4994607;28;20275;-54
2021/12/23 05:36:10;;;;;;;27.43;22.27;;;;;;;-5.37;100.00;100387.88;4987323;28;20221;-55
2021/12/23 05:38:36;;;;;;;28.73;23.27;;;;;;;-5.36;100.00;100398.81;5023409;28;20201;-55
2021/12/23 05:41:01;;;;;;;31.50;24.70;;;;;;;-5.34;100.00;100406.50;4986808;28;20199;-54
2021/12/23 05:43:27;;;;;;;27.97;24.27;;;;;;;-5.33;100.00;100401.53;4985639;28;20268;-53
2021/12/23 05:45:52;;;;;;;29.90;24.50;;;;;;;-5.32;100.00;100389.78;4978827;28;20221;-54
2021/12/23 05:48:18;;;;;;;29.53;24.20;;;;;;;-5.30;100.00;100400.84;4987002;28;20580;-56
2021/12/23 05:50:43;;;;;;;31.43;24.77;;;;;;;-5.31;100.00;100410.06;4989096;28;20579;-54
2021/12/23 05:53:09;;;;;;;32.33;25.73;;;;;;;-5.32;100.00;100415.88;4983861;28;20229;-54
2021/12/23 05:55:34;;;;;;;32.33;25.73;;;;;;;-5.34;100.00;100409.03;4973782;28;20180;-54
2021/12/23 05:58:00;;;;;;;31.77;24.17;;;;;;;-5.39;100.00;100398.66;5006339;28;20660;-54
2021/12/23 06:00:28;;;;;;;28.00;22.80;;;;;;;-5.40;100.00;100390.22;4974845;28;20189;-54
2021/12/23 06:02:55;;;;;;;27.83;22.60;;;;;;;-5.39;100.00;100404.56;4987574;28;20683;-56
2021/12/23 06:05:21;;;;;;;28.70;22.37;;;;;;;-5.39;100.00;100404.56;4988227;28;20203;-54
2021/12/23 06:07:47;;;;;;;28.50;23.73;;;;;;;-5.37;100.00;100407.19;4983463;28;20220;-54
2021/12/23 06:10:14;;;;;;;30.03;24.07;;;;;;;-5.36;100.00;100408.91;4981142;28;20182;-54
2021/12/23 06:12:40;;;;;;;28.13;22.20;;;;;;;-5.35;100.00;100403.09;4983747;28;20181;-54
2021/12/23 06:15:06;;;;;;;27.10;23.23;;;;;;;-5.35;100.00;100400.56;5010078;28;20195;-54
2021/12/23 06:17:31;;;;;;;29.47;23.57;;;;;;;-5.34;100.00;100397.25;4990238;28;20232;-54
2021/12/23 06:19:57;;;;;;;34.10;25.97;;;;;;;-5.33;100.00;100391.44;4986418;28;20645;-54
2021/12/23 06:22:22;;;;;;;29.27;25.53;;;;;;;-5.29;100.00;100393.34;4984934;28;20208;-56
2021/12/23 06:24:48;;;;;;;30.00;24.80;;;;;;;-5.25;100.00;100385.19;4987870;28;20181;-57
2021/12/23 06:27:16;;;;;;;27.03;22.43;;;;;;;-5.22;100.00;100382.81;4975414;28;20193;-56
2021/12/23 06:29:41;;;;;;;26.43;22.20;;;;;;;-5.21;100.00;100387.06;4991226;28;20244;-57
2021/12/23 06:32:07;;;;;;;24.43;20.80;;;;;;;-5.21;100.00;100384.56;4987451;28;20601;-55
2021/12/23 06:34:33;;;;;;;26.53;20.90;;;;;;;-5.21;100.00;100374.47;4989084;28;20595;-55
2021/12/23 06:36:58;;;;;;;26.30;21.77;;;;;;;-5.22;100.00;100371.88;4980218;28;20677;-55
2021/12/23 06:39:24;;;;;;;26.27;20.30;;;;;;;-5.23;100.00;100365.06;4981662;28;20201;-55
2021/12/23 06:41:50;;;;;;;24.57;20.47;;;;;;;-5.25;100.00;100376.72;4984879;28;20193;-55
2021/12/23 06:44:15;;;;;;;26.70;22.53;;;;;;;-5.24;100.00;100378.47;4980690;28;20185;-55
2021/12/23 06:46:40;;;;;;;27.03;22.33;;;;;;;-5.24;100.00;100375.94;4979227;28;20216;-55
2021/12/23 06:49:06;;;;;;;30.37;23.37;;;;;;;-5.24;100.00;100371.78;4979402;28;20220;-55
2021/12/23 06:51:31;;;;;;;25.90;21.40;;;;;;;-5.21;100.00;100354.28;4990178;28;20552;-55
2021/12/23 06:53:59;;;;;;;28.60;21.97;;;;;;;-5.18;100.00;100346.03;4991872;28;20192;-54
2021/12/23 06:56:25;;;;;;;26.70;20.20;;;;;;;-5.13;100.00;100349.66;4986647;28;20193;-56
2021/12/23 06:58:51;;;;;;;26.03;20.63;;;;;;;-5.09;100.00;100368.38;4981637;28;20201;-54
2021/12/23 07:01:18;;;;;;;27.30;21.40;;;;;;;-5.09;100.00;100371.75;4986637;28;20251;-54
2021/12/23 07:06:35;;;;;;;26.20;21.13;;;;;;;-5.14;100.00;100378.19;4982699;28;20708;-56
2021/12/23 07:09:04;;;;;;;26.83;21.43;;;;;;;-5.18;100.00;100371.25;4982665;28;20201;-55
2021/12/23 07:11:30;;;;;;;26.00;20.77;;;;;;;-5.22;100.00;100372.72;4992762;28;20189;-54
2021/12/23 07:13:56;;;;;;;27.30;22.00;;;;;;;-5.23;100.00;100372.66;5008484;28;20211;-54
2021/12/23 07:16:21;;;;;;;27.03;21.13;;;;;;;-5.25;100.00;100374.22;4996815;28;20661;-54
2021/12/23 07:18:46;;;;;;;25.13;20.93;;;;;;;-5.25;100.00;100370.03;5038094;28;20209;-57
2021/12/23 07:21:12;;;;;;;27.20;22.00;;;;;;;-5.27;100.00;100369.09;5003161;28;20181;-56
2021/12/23 07:23:38;;;;;;;26.07;21.87;;;;;;;-5.26;100.00;100367.41;4995866;28;20189;-54
2021/12/23 07:26:03;;;;;;;27.17;22.13;;;;;;;-5.25;100.00;100381.78;4992704;28;20194;-54
2021/12/23 07:28:28;;;;;;;26.93;22.03;;;;;;;-5.22;100.00;100380.28;4986801;28;20221;-57
2021/12/23 07:30:55;;;;;;;27.77;22.83;;;;;;;-5.17;100.00;100362.03;4988172;28;20225;-54
2021/12/23 07:33:21;;;;;;;28.60;22.87;;;;;;;-5.11;100.00;100363.22;4993525;28;20185;-56
2021/12/23 07:35:48;;;;;;;28.77;23.37;;;;;;;-5.05;100.00;100361.06;4987909;28;20197;-54
2021/12/23 07:38:14;;;;;;;28.57;23.20;;;;;;;-4.95;100.00;100357.38;4994732;28;20288;-56
2021/12/23 07:40:40;;;;;;;31.73;24.33;;;;;;;-4.86;100.00;100348.56;5023955;28;20217;-54
2021/12/23 07:43:10;;;;;;;32.77;25.50;;;;;;;-4.77;100.00;100346.56;4988301;28;20208;-54
2021/12/23 07:45:37;;;;;;;30.87;24.23;;;;;;;-4.68;100.00;100351.19;4986952;28;20181;-54
2021/12/23 07:48:03;;;;;;;31.77;24.73;;;;;;;-4.61;100.00;100364.22;4984940;28;20217;-54
2021/12/23 07:50:28;;;;;;;30.37;24.80;;;;;;;-4.54;100.00;100357.88;4987620;28;20191;-56
2021/12/23 07:52:54;;;;;;;36.63;27.63;;;;;;;-4.48;100.00;100353.13;5006619;28;20272;-57
2021/12/23 07:55:21;;;;;;;37.00;26.83;;;;;;;-4.42;100.00;100351.72;4971698;28;20237;-55
2021/12/23 07:57:47;;;;;;;36.90;26.10;;;;;;;-4.37;100.00;100346.13;4975023;28;20201;-54
2021/12/23 08:00:13;;;;;;;35.73;26.60;;;;;;;-4.30;100.00;100354.91;4981610;28;20200;-54
2021/12/23 08:02:39;;;;;;;32.93;24.50;;;;;;;-4.23;100.00;100348.50;4979053;28;20198;-54
2021/12/23 08:05:04;;;;;;;33.20;24.50;;;;;;;-4.14;100.00;100351.50;4995046;28;20208;-55
2021/12/23 08:07:30;;;;;;;29.60;21.63;;;;;;;-4.06;100.00;100351.88;4987174;28;20221;-55
2021/12/23 08:09:56;;;;;;;29.73;21.90;;;;;;;-3.99;100.00;100351.41;4977268;28;20205;-55
2021/12/23 08:12:21;;;;;;;28.53;22.03;;;;;;;-3.93;100.00;100364.34;4988363;28;20239;-55
2021/12/23 08:14:46;;;;;;;26.83;21.27;;;;;;;-3.87;100.00;100359.63;4989311;28;20181;-55
2021/12/23 08:17:12;;;;;;;25.93;20.50;;;;;;;-3.80;100.00;100363.31;4991019;28;20244;-55
2021/12/23 08:19:37;;;;;;;24.47;20.63;;;;;;;-3.75;100.00;100345.84;4994195;28;20192;-55
2021/12/23 08:22:02;;;;;;;24.90;20.30;;;;;;;-3.68;100.00;100341.16;4990372;28;20258;-55
2021/12/23 08:24:29;;;;;;;25.00;20.33;;;;;;;-3.58;100.00;100334.91;4985957;28;20263;-55
2021/12/23 08:26:54;;;;;;;24.87;20.17;;;;;;;-3.47;100.00;100337.97;4978423;28;20267;-55
2021/12/23 08:29:22;;;;;;;23.40;18.70;;;;;;;-3.31;100.00;100323.50;4987835;28;20208;-55
2021/12/23 08:31:53;;;;;;;25.33;19.90;;;;;;;-3.18;100.00;100320.75;4982064;28;20231;-55
2021/12/23 08:34:22;;;;;;;22.60;18.93;;;;;;;-3.03;100.00;100335.81;4984926;28;20215;-55
2021/12/23 08:36:48;;;;;;;21.33;18.00;;;;;;;-2.90;100.00;100327.09;4985564;28;20753;-54
2021/12/23 08:39:15;;;;;;;23.80;18.53;;;;;;;-2.80;100.00;100319.13;4986828;28;20197;-54
2021/12/23 08:41:40;;;;;;;23.40;19.10;;;;;;;-2.71;100.00;100315.28;4987941;28;20193;-54
2021/12/23 08:44:05;;;;;;;24.20;19.77;;;;;;;-2.63;100.00;100314.84;4987111;28;20200;-54
2021/12/23 08:46:31;;;;;;;24.00;19.27;;;;;;;-2.54;100.00;100313.50;4986066;28;20193;-55
2021/12/23 08:48:57;;;;;;;23.30;18.20;;;;;;;-2.49;100.00;100302.78;4983924;28;20212;-55
2021/12/23 08:51:22;;;;;;;24.60;18.57;;;;;;;-2.42;100.00;100305.59;4986588;28;20724;-54
2021/12/23 08:53:48;;;;;;;25.70;19.53;;;;;;;-2.36;100.00;100309.25;4978743;28;20197;-55
2021/12/23 08:56:13;;;;;;;24.97;19.30;;;;;;;-2.33;100.00;100301.78;4987028;28;20208;-55
2021/12/23 08:58:40;;;;;;;22.90;17.13;;;;;;;-2.26;100.00;100296.97;4988174;28;20580;-55
2021/12/23 09:01:06;;;;;;;23.43;18.53;;;;;;;-2.18;100.00;100298.19;4984335;28;20189;-55
2021/12/23 09:03:34;;;;;;;24.90;19.23;;;;;;;-2.09;100.00;100298.56;4986489;28;20208;-54
2021/12/23 09:06:01;;;;;;;21.70;17.23;;;;;;;-2.00;100.00;100293.00;4984307;28;20602;-55
2021/12/23 09:08:26;;;;;;;21.77;17.53;;;;;;;-1.91;100.00;100295.94;4982918;28;20222;-54
2021/12/23 09:10:56;;;;;;;21.60;17.73;;;;;;;-1.81;100.00;100301.41;4986144;28;20185;-54
2021/12/23 09:13:22;;;;;;;24.03;19.37;;;;;;;-1.74;100.00;100291.56;4987168;28;20182;-54
2021/12/23 09:15:49;;;;;;;22.50;18.33;;;;;;;-1.66;100.00;100299.50;4988016;28;20273;-54
2021/12/23 09:18:14;;;;;;;21.73;17.83;;;;;;;-1.55;100.00;100298.25;4982097;28;20726;-54
2021/12/23 09:20:39;;;;;;;24.00;17.73;;;;;;;-1.44;100.00;100296.13;4984884;28;20197;-54
2021/12/23 09:23:07;;;;;;;23.43;17.57;;;;;;;-1.31;100.00;100289.88;4992372;28;20242;-54
2021/12/23 09:25:34;;;;;;;19.00;16.20;;;;;;;-1.18;100.00;100291.22;4990540;28;20248;-54
2021/12/23 09:33:17;;;;;;;22.63;17.93;;;;;;;-0.87;100.00;100278.81;4986772;28;20200;-55
2021/12/23 09:35:43;;;;;;;23.07;17.73;;;;;;;-0.79;100.00;100275.75;5020911;28;20183;-55
2021/12/23 09:38:09;;;;;;;21.30;17.70;;;;;;;-0.67;100.00;100282.94;4990439;28;20215;-55
2021/12/23 09:40:36;;;;;;;24.07;17.77;;;;;;;-0.57;100.00;100270.59;4989627;28;20194;-54
2021/12/23 09:43:05;;;;;;;24.67;18.47;;;;;;;-0.50;100.00;100268.31;4988439;28;20189;-54
2021/12/23 09:45:31;;;;;;;23.03;17.77;;;;;;;-0.44;100.00;100265.13;4988082;28;20267;-53
2021/12/23 09:47:58;;;;;;;20.40;17.00;;;;;;;-0.40;100.00;100266.09;4989197;28;20312;-54
2021/12/23 09:50:25;;;;;;;20.77;16.13;;;;;;;-0.36;100.00;100262.84;4988742;28;20697;-54
2021/12/23 09:52:53;;;;;;;20.73;17.00;;;;;;;-0.33;100.00;100252.78;4986353;28;20247;-54
2021/12/23 09:55:22;;;;;;;21.23;17.00;;;;;;;-0.31;100.00;100253.72;4990105;28;20192;-55
2021/12/23 09:57:49;;;;;;;20.50;16.27;;;;;;;-0.28;100.00;100245.31;4989973;28;20301;-54
2021/12/23 10:00:18;;;;;;;22.23;17.87;;;;;;;-0.24;100.00;100252.25;4991929;28;20595;-53
2021/12/23 10:02:44;;;;;;;22.53;17.70;;;;;;;-0.21;100.00;100254.88;4988929;28;20198;-53
2021/12/23 10:05:13;;;;;;;22.40;17.90;;;;;;;-0.17;100.00;100261.81;4991277;28;20202;-56
2021/12/23 10:07:40;;;;;;;19.73;16.47;;;;;;;-0.11;100.00;100258.59;4983602;28;20221;-55
2021/12/23 10:10:15;;;;;;;19.53;15.97;;;;;;;-0.02;100.00;100241.13;4990653;28;20192;-58
2021/12/23 10:31:47;;;;;;;23.80;18.90;;;;;;;1.10;100.00;100268.34;4982724;28;20488;-54
2021/12/23 10:37:22;;;;;;;22.07;18.03;;;;;;;1.09;100.00;100253.88;4987461;28;20233;-54
2021/12/23 10:40:07;;;;;;;23.93;19.00;;;;;;;1.11;100.00;100247.13;4990499;28;20591;-54
2021/12/23 10:42:33;;;;;;;23.63;18.73;;;;;;;1.06;100.00;100241.03;5014892;28;20197;-54
2021/12/23 10:45:04;;;;;;;24.57;19.57;;;;;;;1.05;100.00;100236.75;5022453;28;20664;-54
2021/12/23 10:47:50;;;;;;;29.20;21.03;;;;;;;1.05;100.00;100235.09;4985327;28;20213;-54
2021/12/23 10:50:50;;;;;;;26.60;19.93;;;;;;;1.05;100.00;100222.34;4987837;28;20201;-54
2021/12/23 10:53:49;;;;;;;23.50;19.67;;;;;;;1.03;100.00;100228.19;4988024;28;20228;-54
2021/12/23 10:59:23;;;;;;;21.40;17.27;;;;;;;1.04;100.00;100225.72;4982361;28;20712;-54
2021/12/23 11:02:14;;;;;;;22.80;18.53;;;;;;;1.09;100.00;100205.44;4988350;28;20197;-54
2021/12/23 11:05:16;;;;;;;23.73;19.93;;;;;;;1.13;100.00;100214.91;4987554;28;20192;-54
2021/12/23 11:10:37;;;;;;;24.50;19.27;;;;;;;1.20;100.00;100203.22;4987797;28;20202;-54
2021/12/23 11:38:38;;;;;;;24.57;19.40;;;;;;;2.10;100.00;100122.13;5006048;28;20264;-54
2021/12/23 11:46:12;;;;;;;22.20;18.67;;;;;;;2.17;100.00;100104.41;4986368;28;20573;-56
2021/12/23 11:48:42;;;;;;;21.93;18.50;;;;;;;2.19;100.00;100097.63;4986676;28;20752;-56
2021/12/23 11:51:15;;;;;;;21.10;18.20;;;;;;;2.22;100.00;100092.56;4987498;28;20193;-53
2021/12/23 11:53:41;;;;;;;21.87;18.43;;;;;;;2.26;100.00;100086.72;4990110;28;20185;-54
2021/12/23 11:56:10;;;;;;;21.83;17.90;;;;;;;2.30;100.00;100073.19;4996698;28;20239;-54
2021/12/23 11:58:41;;;;;;;22.43;17.00;;;;;;;2.39;100.00;100077.63;4987769;28;20207;-54
2021/12/23 12:01:15;;;;;;;20.20;16.70;;;;;;;2.49;100.00;100061.66;4989412;28;20308;-54
2021/12/23 12:03:58;;;;;;;18.30;15.43;;;;;;;2.65;100.00;100061.97;4970457;28;20541;-53
2021/12/23 12:06:50;;;;;;;16.63;14.53;;;;;;;2.79;100.00;100040.09;5002452;28;20585;-55
2021/12/23 12:09:18;;;;;;;17.27;14.97;;;;;;;2.93;100.00;100035.25;4959998;28;20320;-53
2021/12/23 12:12:08;;;;;;;18.20;15.67;;;;;;;3.11;100.00;100034.69;4975124;28;20280;-55
2021/12/23 12:14:34;;;;;;;18.37;15.53;;;;;;;3.22;100.00;100026.34;4986921;28;20248;-55
2021/12/23 12:17:33;;;;;;;16.23;14.07;;;;;;;3.35;100.00;100006.13;4990288;28;20212;-55